sensor_id;sensor_type;location;lat;lon;timestamp;temperature;humidity
957;DHT22;465;48.802;9.224;2022-07-29T00:02:27;21.60;99.90
957;DHT22;465;48.802;9.224;2022-07-29T00:04:55;21.60;99.90
957;DHT22;465;48.802;9.224;2022-07-29T00:07:22;21.60;99.90
957;DHT22;465;48.802;9.224;2022-07-29T00:09:49;21.50;99.90
957;DHT22;465;48.802;9.224;2022-07-29T00:12:16;21.50;99.90
957;DHT22;465;48.802;9.224;2022-07-29T00:14:42;21.40;99.90
957;DHT22;465;48.802;9.224;2022-07-29T00:17:09;21.50;99.90
957;DHT22;465;48.802;9.224;2022-07-29T00:19:36;21.50;99.90
957;DHT22;465;48.802;9.224;2022-07-29T00:22:04;21.60;99.90
957;DHT22;465;48.802;9.224;2022-07-29T00:24:31;21.50;99.90
957;DHT22;465;48.802;9.224;2022-07-29T00:26:57;21.60;99.90
957;DHT22;465;48.802;9.224;2022-07-29T00:29:24;21.60;99.90
957;DHT22;465;48.802;9.224;2022-07-29T00:31:51;21.50;99.90
957;DHT22;465;48.802;9.224;2022-07-29T00:34:17;21.60;99.90
957;DHT22;465;48.802;9.224;2022-07-29T00:37:03;21.40;99.90
957;DHT22;465;48.802;9.224;2022-07-29T00:39:30;21.40;99.90
957;DHT22;465;48.802;9.224;2022-07-29T00:41:56;21.30;99.90
957;DHT22;465;48.802;9.224;2022-07-29T00:44:23;21.30;99.90
957;DHT22;465;48.802;9.224;2022-07-29T00:46:50;21.20;99.90
957;DHT22;465;48.802;9.224;2022-07-29T00:49:16;21.10;99.90
957;DHT22;465;48.802;9.224;2022-07-29T00:51:43;21.20;99.90
957;DHT22;465;48.802;9.224;2022-07-29T00:54:12;21.20;99.90
957;DHT22;465;48.802;9.224;2022-07-29T00:56:39;21.20;99.90
957;DHT22;465;48.802;9.224;2022-07-29T00:59:05;21.20;99.90
957;DHT22;465;48.802;9.224;2022-07-29T01:01:32;21.20;99.90
957;DHT22;465;48.802;9.224;2022-07-29T01:03:59;21.30;99.90
957;DHT22;465;48.802;9.224;2022-07-29T01:06:26;21.30;99.90
957;DHT22;465;48.802;9.224;2022-07-29T01:08:53;21.30;99.90
957;DHT22;465;48.802;9.224;2022-07-29T01:11:25;21.30;99.90
957;DHT22;465;48.802;9.224;2022-07-29T01:13:52;21.40;99.90
957;DHT22;465;48.802;9.224;2022-07-29T01:16:23;21.30;99.90
957;DHT22;465;48.802;9.224;2022-07-29T01:18:55;21.40;99.90
957;DHT22;465;48.802;9.224;2022-07-29T01:21:44;21.30;99.90
957;DHT22;465;48.802;9.224;2022-07-29T01:24:39;21.30;99.90
957;DHT22;465;48.802;9.224;2022-07-29T01:27:26;21.20;99.90
957;DHT22;465;48.802;9.224;2022-07-29T01:30:01;21.30;99.90
957;DHT22;465;48.802;9.224;2022-07-29T01:32:31;21.30;99.90
957;DHT22;465;48.802;9.224;2022-07-29T01:35:03;21.20;99.90
957;DHT22;465;48.802;9.224;2022-07-29T01:37:39;21.20;99.90
957;DHT22;465;48.802;9.224;2022-07-29T01:40:14;21.20;99.90
957;DHT22;465;48.802;9.224;2022-07-29T01:42:47;21.20;99.90
957;DHT22;465;48.802;9.224;2022-07-29T01:45:18;21.20;99.90
957;DHT22;465;48.802;9.224;2022-07-29T01:47:54;21.10;99.90
957;DHT22;465;48.802;9.224;2022-07-29T01:50:28;21.10;99.90
957;DHT22;465;48.802;9.224;2022-07-29T01:52:59;21.00;99.90
957;DHT22;465;48.802;9.224;2022-07-29T01:55:29;21.00;99.90
957;DHT22;465;48.802;9.224;2022-07-29T01:57:57;21.00;99.90
957;DHT22;465;48.802;9.224;2022-07-29T02:00:27;20.90;99.90
957;DHT22;465;48.802;9.224;2022-07-29T02:02:56;20.90;99.90
957;DHT22;465;48.802;9.224;2022-07-29T02:05:25;20.90;99.90
957;DHT22;465;48.802;9.224;2022-07-29T02:07:54;20.90;99.90
957;DHT22;465;48.802;9.224;2022-07-29T02:10:25;20.90;99.90
957;DHT22;465;48.802;9.224;2022-07-29T02:12:54;20.90;99.90
957;DHT22;465;48.802;9.224;2022-07-29T02:15:21;20.90;99.90
957;DHT22;465;48.802;9.224;2022-07-29T02:17:53;20.80;99.90
957;DHT22;465;48.802;9.224;2022-07-29T02:20:22;20.70;99.90
957;DHT22;465;48.802;9.224;2022-07-29T02:22:52;20.80;99.90
957;DHT22;465;48.802;9.224;2022-07-29T02:25:21;20.80;99.90
957;DHT22;465;48.802;9.224;2022-07-29T02:27:49;20.80;99.90
957;DHT22;465;48.802;9.224;2022-07-29T02:30:17;20.80;99.90
957;DHT22;465;48.802;9.224;2022-07-29T02:32:45;20.70;99.90
957;DHT22;465;48.802;9.224;2022-07-29T02:35:15;20.60;99.90
957;DHT22;465;48.802;9.224;2022-07-29T02:37:43;20.60;99.90
957;DHT22;465;48.802;9.224;2022-07-29T02:40:11;20.50;99.90
957;DHT22;465;48.802;9.224;2022-07-29T02:42:42;20.50;99.90
957;DHT22;465;48.802;9.224;2022-07-29T02:45:11;20.50;99.90
957;DHT22;465;48.802;9.224;2022-07-29T02:47:42;20.60;99.90
957;DHT22;465;48.802;9.224;2022-07-29T02:50:15;20.60;99.90
957;DHT22;465;48.802;9.224;2022-07-29T02:52:45;20.50;99.90
957;DHT22;465;48.802;9.224;2022-07-29T02:57:51;20.40;99.90
957;DHT22;465;48.802;9.224;2022-07-29T03:00:21;20.40;99.90
957;DHT22;465;48.802;9.224;2022-07-29T03:02:52;20.40;99.90
957;DHT22;465;48.802;9.224;2022-07-29T03:05:22;20.50;99.90
957;DHT22;465;48.802;9.224;2022-07-29T03:07:54;20.50;99.90
957;DHT22;465;48.802;9.224;2022-07-29T03:10:22;20.50;99.90
957;DHT22;465;48.802;9.224;2022-07-29T03:12:50;20.50;99.90
957;DHT22;465;48.802;9.224;2022-07-29T03:15:17;20.50;99.90
957;DHT22;465;48.802;9.224;2022-07-29T03:17:44;20.50;99.90
957;DHT22;465;48.802;9.224;2022-07-29T03:20:12;20.40;99.90
957;DHT22;465;48.802;9.224;2022-07-29T03:22:42;20.30;99.90
957;DHT22;465;48.802;9.224;2022-07-29T03:25:12;20.30;99.90
957;DHT22;465;48.802;9.224;2022-07-29T03:27:39;20.30;99.90
957;DHT22;465;48.802;9.224;2022-07-29T03:30:08;20.30;99.90
957;DHT22;465;48.802;9.224;2022-07-29T03:32:35;20.30;99.90
957;DHT22;465;48.802;9.224;2022-07-29T03:35:02;20.40;99.90
957;DHT22;465;48.802;9.224;2022-07-29T03:37:29;20.30;99.90
957;DHT22;465;48.802;9.224;2022-07-29T03:39:58;20.30;99.90
957;DHT22;465;48.802;9.224;2022-07-29T03:42:27;20.30;99.90
957;DHT22;465;48.802;9.224;2022-07-29T03:44:56;20.30;99.90
957;DHT22;465;48.802;9.224;2022-07-29T03:47:25;20.40;99.90
957;DHT22;465;48.802;9.224;2022-07-29T03:49:58;20.30;99.90
957;DHT22;465;48.802;9.224;2022-07-29T03:52:25;20.20;99.90
957;DHT22;465;48.802;9.224;2022-07-29T03:54:52;20.20;99.90
957;DHT22;465;48.802;9.224;2022-07-29T03:57:24;20.20;99.90
957;DHT22;465;48.802;9.224;2022-07-29T03:59:52;20.20;99.90
957;DHT22;465;48.802;9.224;2022-07-29T04:02:19;20.20;99.90
957;DHT22;465;48.802;9.224;2022-07-29T04:04:47;20.20;99.90
957;DHT22;465;48.802;9.224;2022-07-29T04:07:14;20.20;99.90
957;DHT22;465;48.802;9.224;2022-07-29T04:09:41;20.30;99.90
957;DHT22;465;48.802;9.224;2022-07-29T04:12:08;20.20;99.90
957;DHT22;465;48.802;9.224;2022-07-29T04:14:36;20.20;99.90
957;DHT22;465;48.802;9.224;2022-07-29T04:17:04;20.20;99.90
957;DHT22;465;48.802;9.224;2022-07-29T04:19:31;20.20;99.90
957;DHT22;465;48.802;9.224;2022-07-29T04:21:59;20.20;99.90
957;DHT22;465;48.802;9.224;2022-07-29T04:24:26;20.20;99.90
957;DHT22;465;48.802;9.224;2022-07-29T04:26:53;20.20;99.90
957;DHT22;465;48.802;9.224;2022-07-29T04:29:20;20.30;99.90
957;DHT22;465;48.802;9.224;2022-07-29T04:31:48;20.30;99.90
957;DHT22;465;48.802;9.224;2022-07-29T04:34:14;20.30;99.90
957;DHT22;465;48.802;9.224;2022-07-29T04:36:41;20.30;99.90
957;DHT22;465;48.802;9.224;2022-07-29T04:39:08;20.30;99.90
957;DHT22;465;48.802;9.224;2022-07-29T04:41:35;20.40;99.90
957;DHT22;465;48.802;9.224;2022-07-29T04:44:02;20.40;99.90
957;DHT22;465;48.802;9.224;2022-07-29T04:46:30;20.40;99.90
957;DHT22;465;48.802;9.224;2022-07-29T04:48:58;20.50;99.90
957;DHT22;465;48.802;9.224;2022-07-29T04:51:25;20.40;99.90
957;DHT22;465;48.802;9.224;2022-07-29T04:53:52;20.50;99.90
957;DHT22;465;48.802;9.224;2022-07-29T04:56:19;20.50;99.90
957;DHT22;465;48.802;9.224;2022-07-29T04:58:46;20.60;99.90
957;DHT22;465;48.802;9.224;2022-07-29T05:01:13;20.70;99.90
957;DHT22;465;48.802;9.224;2022-07-29T05:03:40;20.70;99.90
957;DHT22;465;48.802;9.224;2022-07-29T05:06:08;20.80;99.90
957;DHT22;465;48.802;9.224;2022-07-29T05:08:35;20.80;99.90
957;DHT22;465;48.802;9.224;2022-07-29T05:11:01;21.00;99.90
957;DHT22;465;48.802;9.224;2022-07-29T05:13:28;21.10;99.90
957;DHT22;465;48.802;9.224;2022-07-29T05:15:55;21.30;99.90
957;DHT22;465;48.802;9.224;2022-07-29T05:18:23;21.70;99.90
957;DHT22;465;48.802;9.224;2022-07-29T05:20:50;22.20;99.90
957;DHT22;465;48.802;9.224;2022-07-29T05:23:18;22.60;99.90
957;DHT22;465;48.802;9.224;2022-07-29T05:25:45;23.00;99.90
957;DHT22;465;48.802;9.224;2022-07-29T05:28:12;23.30;99.90
957;DHT22;465;48.802;9.224;2022-07-29T05:30:38;23.60;99.90
957;DHT22;465;48.802;9.224;2022-07-29T05:33:05;23.60;99.90
957;DHT22;465;48.802;9.224;2022-07-29T05:35:32;23.60;99.90
957;DHT22;465;48.802;9.224;2022-07-29T05:38:00;23.70;99.90
957;DHT22;465;48.802;9.224;2022-07-29T05:40:28;23.70;99.90
957;DHT22;465;48.802;9.224;2022-07-29T05:42:55;23.80;99.90
957;DHT22;465;48.802;9.224;2022-07-29T05:45:22;23.80;99.90
957;DHT22;465;48.802;9.224;2022-07-29T05:47:49;24.00;99.90
957;DHT22;465;48.802;9.224;2022-07-29T05:50:16;24.20;99.90
957;DHT22;465;48.802;9.224;2022-07-29T05:52:43;24.60;99.90
957;DHT22;465;48.802;9.224;2022-07-29T05:55:10;24.90;99.90
957;DHT22;465;48.802;9.224;2022-07-29T05:57:38;24.90;99.90
957;DHT22;465;48.802;9.224;2022-07-29T06:00:05;24.90;99.90
957;DHT22;465;48.802;9.224;2022-07-29T06:02:33;25.00;99.90
957;DHT22;465;48.802;9.224;2022-07-29T06:04:59;25.10;99.70
957;DHT22;465;48.802;9.224;2022-07-29T06:07:26;25.30;99.20
957;DHT22;465;48.802;9.224;2022-07-29T06:09:53;25.70;97.90
957;DHT22;465;48.802;9.224;2022-07-29T06:12:19;25.80;97.40
957;DHT22;465;48.802;9.224;2022-07-29T06:14:47;26.00;96.30
957;DHT22;465;48.802;9.224;2022-07-29T06:17:15;26.20;95.70
957;DHT22;465;48.802;9.224;2022-07-29T06:19:42;26.30;94.80
957;DHT22;465;48.802;9.224;2022-07-29T06:22:09;26.40;94.50
957;DHT22;465;48.802;9.224;2022-07-29T06:24:36;26.90;94.00
957;DHT22;465;48.802;9.224;2022-07-29T06:27:06;27.40;92.80
957;DHT22;465;48.802;9.224;2022-07-29T06:29:33;27.90;91.70
957;DHT22;465;48.802;9.224;2022-07-29T06:32:01;28.30;90.40
957;DHT22;465;48.802;9.224;2022-07-29T06:34:28;28.80;88.40
957;DHT22;465;48.802;9.224;2022-07-29T06:36:55;29.40;85.80
957;DHT22;465;48.802;9.224;2022-07-29T06:39:24;29.80;81.50
957;DHT22;465;48.802;9.224;2022-07-29T06:41:50;30.30;80.00
957;DHT22;465;48.802;9.224;2022-07-29T06:44:18;30.00;78.20
957;DHT22;465;48.802;9.224;2022-07-29T06:46:44;30.00;78.30
957;DHT22;465;48.802;9.224;2022-07-29T06:49:13;30.50;77.10
957;DHT22;465;48.802;9.224;2022-07-29T06:51:40;31.00;74.50
957;DHT22;465;48.802;9.224;2022-07-29T06:54:07;31.50;71.10
957;DHT22;465;48.802;9.224;2022-07-29T06:56:34;31.30;69.30
957;DHT22;465;48.802;9.224;2022-07-29T06:59:02;30.60;70.50
957;DHT22;465;48.802;9.224;2022-07-29T07:01:29;29.80;74.60
957;DHT22;465;48.802;9.224;2022-07-29T07:03:56;29.80;75.00
957;DHT22;465;48.802;9.224;2022-07-29T07:06:24;30.00;74.10
957;DHT22;465;48.802;9.224;2022-07-29T07:08:51;30.70;72.30
957;DHT22;465;48.802;9.224;2022-07-29T07:11:17;30.60;71.60
957;DHT22;465;48.802;9.224;2022-07-29T07:13:44;30.30;71.50
957;DHT22;465;48.802;9.224;2022-07-29T07:16:11;30.20;71.60
957;DHT22;465;48.802;9.224;2022-07-29T07:18:38;30.70;71.30
957;DHT22;465;48.802;9.224;2022-07-29T07:21:05;31.00;70.10
957;DHT22;465;48.802;9.224;2022-07-29T07:23:34;31.10;68.70
957;DHT22;465;48.802;9.224;2022-07-29T07:26:00;31.00;68.60
957;DHT22;465;48.802;9.224;2022-07-29T07:28:28;30.70;68.90
957;DHT22;465;48.802;9.224;2022-07-29T07:30:55;30.40;71.30
957;DHT22;465;48.802;9.224;2022-07-29T07:33:22;31.00;69.00
957;DHT22;465;48.802;9.224;2022-07-29T07:35:48;31.10;68.40
957;DHT22;465;48.802;9.224;2022-07-29T07:38:15;30.80;69.70
957;DHT22;465;48.802;9.224;2022-07-29T07:40:43;30.50;69.40
957;DHT22;465;48.802;9.224;2022-07-29T07:43:12;30.80;69.50
957;DHT22;465;48.802;9.224;2022-07-29T07:45:39;31.00;68.20
957;DHT22;465;48.802;9.224;2022-07-29T07:48:08;31.30;68.00
957;DHT22;465;48.802;9.224;2022-07-29T07:50:36;32.00;66.00
957;DHT22;465;48.802;9.224;2022-07-29T07:53:02;31.70;64.70
957;DHT22;465;48.802;9.224;2022-07-29T07:55:30;32.70;63.40
957;DHT22;465;48.802;9.224;2022-07-29T07:57:58;33.30;61.30
957;DHT22;465;48.802;9.224;2022-07-29T08:00:25;33.70;59.50
957;DHT22;465;48.802;9.224;2022-07-29T08:02:52;33.60;59.00
957;DHT22;465;48.802;9.224;2022-07-29T08:05:19;33.00;59.30
957;DHT22;465;48.802;9.224;2022-07-29T08:07:46;33.20;59.50
957;DHT22;465;48.802;9.224;2022-07-29T08:10:13;33.00;59.80
957;DHT22;465;48.802;9.224;2022-07-29T08:12:42;33.00;59.40
957;DHT22;465;48.802;9.224;2022-07-29T08:15:13;32.80;58.90
957;DHT22;465;48.802;9.224;2022-07-29T08:17:41;33.80;59.10
957;DHT22;465;48.802;9.224;2022-07-29T08:20:08;34.60;57.00
957;DHT22;465;48.802;9.224;2022-07-29T08:23:00;34.90;55.90
957;DHT22;465;48.802;9.224;2022-07-29T08:33:05;37.20;50.70
957;DHT22;465;48.802;9.224;2022-07-29T08:35:31;37.00;49.10
957;DHT22;465;48.802;9.224;2022-07-29T08:37:58;36.60;50.20
957;DHT22;465;48.802;9.224;2022-07-29T08:40:25;36.80;49.50
957;DHT22;465;48.802;9.224;2022-07-29T08:42:51;37.50;49.00
957;DHT22;465;48.802;9.224;2022-07-29T08:45:18;37.70;47.70
957;DHT22;465;48.802;9.224;2022-07-29T08:47:45;37.50;47.70
957;DHT22;465;48.802;9.224;2022-07-29T08:50:13;37.50;47.50
957;DHT22;465;48.802;9.224;2022-07-29T08:52:41;37.30;47.50
957;DHT22;465;48.802;9.224;2022-07-29T08:55:09;37.20;47.00
957;DHT22;465;48.802;9.224;2022-07-29T09:00:17;36.40;48.50
957;DHT22;465;48.802;9.224;2022-07-29T09:02:56;36.40;48.70
957;DHT22;465;48.802;9.224;2022-07-29T09:05:41;37.10;47.70
957;DHT22;465;48.802;9.224;2022-07-29T09:08:35;37.10;47.30
957;DHT22;465;48.802;9.224;2022-07-29T09:11:17;37.30;46.50
957;DHT22;465;48.802;9.224;2022-07-29T09:14:07;36.10;48.10
957;DHT22;465;48.802;9.224;2022-07-29T09:16:55;37.50;46.90
957;DHT22;465;48.802;9.224;2022-07-29T09:19:45;38.90;44.00
957;DHT22;465;48.802;9.224;2022-07-29T09:25:34;39.20;41.30
957;DHT22;465;48.802;9.224;2022-07-29T09:28:09;38.20;42.40
957;DHT22;465;48.802;9.224;2022-07-29T09:30:50;38.40;42.30
957;DHT22;465;48.802;9.224;2022-07-29T09:33:31;38.60;42.20
957;DHT22;465;48.802;9.224;2022-07-29T09:36:09;39.70;40.10
957;DHT22;465;48.802;9.224;2022-07-29T09:38:58;40.30;39.90
957;DHT22;465;48.802;9.224;2022-07-29T09:41:28;40.10;39.20
957;DHT22;465;48.802;9.224;2022-07-29T09:44:00;40.00;39.60
957;DHT22;465;48.802;9.224;2022-07-29T09:46:31;40.20;38.90
957;DHT22;465;48.802;9.224;2022-07-29T09:49:08;40.20;38.80
957;DHT22;465;48.802;9.224;2022-07-29T09:52:00;39.90;38.70
957;DHT22;465;48.802;9.224;2022-07-29T10:00:26;38.80;38.00
957;DHT22;465;48.802;9.224;2022-07-29T10:12:20;38.20;38.80
957;DHT22;465;48.802;9.224;2022-07-29T10:15:15;39.10;38.20
957;DHT22;465;48.802;9.224;2022-07-29T10:17:56;39.30;37.30
957;DHT22;465;48.802;9.224;2022-07-29T10:20:37;39.20;37.00
957;DHT22;465;48.802;9.224;2022-07-29T10:23:51;38.70;37.80
957;DHT22;465;48.802;9.224;2022-07-29T10:26:37;39.30;37.30
957;DHT22;465;48.802;9.224;2022-07-29T10:29:25;38.40;37.90
957;DHT22;465;48.802;9.224;2022-07-29T10:32:28;37.80;39.40
957;DHT22;465;48.802;9.224;2022-07-29T10:38:37;35.50;42.70
957;DHT22;465;48.802;9.224;2022-07-29T10:41:26;34.40;45.00
957;DHT22;465;48.802;9.224;2022-07-29T10:44:04;33.60;46.90
957;DHT22;465;48.802;9.224;2022-07-29T10:46:40;32.90;48.10
957;DHT22;465;48.802;9.224;2022-07-29T10:49:19;32.30;49.30
957;DHT22;465;48.802;9.224;2022-07-29T10:52:00;31.70;51.50
957;DHT22;465;48.802;9.224;2022-07-29T10:54:43;31.20;54.20
957;DHT22;465;48.802;9.224;2022-07-29T10:57:28;30.80;56.20
957;DHT22;465;48.802;9.224;2022-07-29T11:00:31;30.30;57.80
957;DHT22;465;48.802;9.224;2022-07-29T11:02:59;29.80;59.10
957;DHT22;465;48.802;9.224;2022-07-29T11:05:29;29.40;63.40
957;DHT22;465;48.802;9.224;2022-07-29T11:08:17;29.00;68.60
957;DHT22;465;48.802;9.224;2022-07-29T11:10:49;28.60;72.40
957;DHT22;465;48.802;9.224;2022-07-29T11:20:43;26.70;87.60
957;DHT22;465;48.802;9.224;2022-07-29T11:23:18;24.10;98.10
957;DHT22;465;48.802;9.224;2022-07-29T11:26:22;23.10;99.90
957;DHT22;465;48.802;9.224;2022-07-29T11:28:57;22.60;99.90
957;DHT22;465;48.802;9.224;2022-07-29T11:31:33;22.30;99.90
957;DHT22;465;48.802;9.224;2022-07-29T11:34:23;22.20;99.90
957;DHT22;465;48.802;9.224;2022-07-29T11:37:17;22.10;99.90
957;DHT22;465;48.802;9.224;2022-07-29T11:39:47;21.90;99.90
957;DHT22;465;48.802;9.224;2022-07-29T11:42:37;21.70;99.90
957;DHT22;465;48.802;9.224;2022-07-29T11:45:05;21.30;99.90
957;DHT22;465;48.802;9.224;2022-07-29T11:47:34;21.30;99.90
957;DHT22;465;48.802;9.224;2022-07-29T11:50:04;21.30;99.90
957;DHT22;465;48.802;9.224;2022-07-29T11:52:34;21.30;99.90
957;DHT22;465;48.802;9.224;2022-07-29T11:55:04;21.30;99.90
957;DHT22;465;48.802;9.224;2022-07-29T11:57:31;21.20;99.90
957;DHT22;465;48.802;9.224;2022-07-29T12:00:00;21.20;99.90
957;DHT22;465;48.802;9.224;2022-07-29T12:02:38;21.10;99.90
957;DHT22;465;48.802;9.224;2022-07-29T12:05:09;21.20;99.90
957;DHT22;465;48.802;9.224;2022-07-29T12:07:38;21.40;99.90
957;DHT22;465;48.802;9.224;2022-07-29T12:10:07;21.50;99.90
957;DHT22;465;48.802;9.224;2022-07-29T12:12:35;21.70;99.90
957;DHT22;465;48.802;9.224;2022-07-29T12:15:13;21.80;99.90
957;DHT22;465;48.802;9.224;2022-07-29T12:17:40;22.00;99.90
957;DHT22;465;48.802;9.224;2022-07-29T12:20:07;22.10;99.90
957;DHT22;465;48.802;9.224;2022-07-29T12:22:36;22.20;99.90
957;DHT22;465;48.802;9.224;2022-07-29T12:25:07;22.50;99.90
957;DHT22;465;48.802;9.224;2022-07-29T12:27:35;22.60;99.90
957;DHT22;465;48.802;9.224;2022-07-29T12:30:05;22.70;99.90
957;DHT22;465;48.802;9.224;2022-07-29T12:32:33;23.00;99.90
957;DHT22;465;48.802;9.224;2022-07-29T12:35:04;23.30;99.90
957;DHT22;465;48.802;9.224;2022-07-29T12:37:32;23.60;99.80
957;DHT22;465;48.802;9.224;2022-07-29T12:40:03;23.90;99.30
957;DHT22;465;48.802;9.224;2022-07-29T12:42:32;24.00;99.50
957;DHT22;465;48.802;9.224;2022-07-29T12:45:00;24.10;97.50
957;DHT22;465;48.802;9.224;2022-07-29T12:47:28;24.10;97.10
957;DHT22;465;48.802;9.224;2022-07-29T12:50:08;24.00;95.80
957;DHT22;465;48.802;9.224;2022-07-29T12:52:35;23.90;96.50
957;DHT22;465;48.802;9.224;2022-07-29T12:55:03;23.80;96.80
957;DHT22;465;48.802;9.224;2022-07-29T12:57:35;23.80;97.60
957;DHT22;465;48.802;9.224;2022-07-29T13:00:12;23.80;97.40
957;DHT22;465;48.802;9.224;2022-07-29T13:02:41;23.70;96.10
957;DHT22;465;48.802;9.224;2022-07-29T13:05:10;23.60;96.70
957;DHT22;465;48.802;9.224;2022-07-29T13:07:38;23.50;97.80
957;DHT22;465;48.802;9.224;2022-07-29T13:10:13;23.40;98.80
957;DHT22;465;48.802;9.224;2022-07-29T13:13:01;23.30;99.90
957;DHT22;465;48.802;9.224;2022-07-29T13:15:28;23.20;99.90
957;DHT22;465;48.802;9.224;2022-07-29T13:17:55;23.10;99.90
957;DHT22;465;48.802;9.224;2022-07-29T13:20:24;23.00;99.90
957;DHT22;465;48.802;9.224;2022-07-29T13:22:52;23.00;99.90
957;DHT22;465;48.802;9.224;2022-07-29T13:25:24;22.90;99.90
957;DHT22;465;48.802;9.224;2022-07-29T13:27:53;22.90;99.90
957;DHT22;465;48.802;9.224;2022-07-29T13:30:21;22.90;99.90
957;DHT22;465;48.802;9.224;2022-07-29T13:32:49;22.80;99.90
957;DHT22;465;48.802;9.224;2022-07-29T13:35:16;22.60;99.90
957;DHT22;465;48.802;9.224;2022-07-29T13:37:43;22.30;99.90
957;DHT22;465;48.802;9.224;2022-07-29T13:40:11;22.10;99.90
957;DHT22;465;48.802;9.224;2022-07-29T13:42:38;21.70;99.90
957;DHT22;465;48.802;9.224;2022-07-29T13:45:12;21.40;99.90
957;DHT22;465;48.802;9.224;2022-07-29T13:47:39;21.40;99.90
957;DHT22;465;48.802;9.224;2022-07-29T13:50:08;21.30;99.90
957;DHT22;465;48.802;9.224;2022-07-29T13:52:36;21.40;99.90
957;DHT22;465;48.802;9.224;2022-07-29T13:55:04;21.40;99.90
957;DHT22;465;48.802;9.224;2022-07-29T13:57:31;21.40;99.90
957;DHT22;465;48.802;9.224;2022-07-29T13:59:58;21.40;99.90
957;DHT22;465;48.802;9.224;2022-07-29T14:02:26;21.50;99.90
957;DHT22;465;48.802;9.224;2022-07-29T14:04:53;21.60;99.90
957;DHT22;465;48.802;9.224;2022-07-29T14:07:20;21.70;99.90
957;DHT22;465;48.802;9.224;2022-07-29T14:09:46;22.10;99.90
957;DHT22;465;48.802;9.224;2022-07-29T14:12:13;22.60;99.90
957;DHT22;465;48.802;9.224;2022-07-29T14:14:40;23.10;99.90
957;DHT22;465;48.802;9.224;2022-07-29T14:17:07;23.50;99.90
957;DHT22;465;48.802;9.224;2022-07-29T14:19:35;23.60;99.90
957;DHT22;465;48.802;9.224;2022-07-29T14:22:04;23.90;99.90
957;DHT22;465;48.802;9.224;2022-07-29T14:24:31;24.00;99.90
957;DHT22;465;48.802;9.224;2022-07-29T14:26:58;24.20;99.90
957;DHT22;465;48.802;9.224;2022-07-29T14:29:25;24.30;99.90
957;DHT22;465;48.802;9.224;2022-07-29T14:31:52;24.20;99.90
957;DHT22;465;48.802;9.224;2022-07-29T14:34:19;24.40;99.90
957;DHT22;465;48.802;9.224;2022-07-29T14:36:47;24.50;99.90
957;DHT22;465;48.802;9.224;2022-07-29T14:39:14;24.70;99.90
957;DHT22;465;48.802;9.224;2022-07-29T14:41:42;24.80;99.90
957;DHT22;465;48.802;9.224;2022-07-29T14:44:09;25.00;99.90
957;DHT22;465;48.802;9.224;2022-07-29T14:46:36;25.10;99.90
957;DHT22;465;48.802;9.224;2022-07-29T14:49:03;25.10;99.90
957;DHT22;465;48.802;9.224;2022-07-29T14:51:30;25.20;99.90
957;DHT22;465;48.802;9.224;2022-07-29T14:53:59;24.90;99.90
957;DHT22;465;48.802;9.224;2022-07-29T14:56:25;24.50;99.90
957;DHT22;465;48.802;9.224;2022-07-29T14:58:52;24.60;99.90
957;DHT22;465;48.802;9.224;2022-07-29T15:01:19;24.50;99.90
957;DHT22;465;48.802;9.224;2022-07-29T15:03:45;24.70;99.90
957;DHT22;465;48.802;9.224;2022-07-29T15:06:12;24.60;99.90
957;DHT22;465;48.802;9.224;2022-07-29T15:08:39;24.70;99.90
957;DHT22;465;48.802;9.224;2022-07-29T15:11:07;24.60;99.90
957;DHT22;465;48.802;9.224;2022-07-29T15:13:33;24.60;99.90
957;DHT22;465;48.802;9.224;2022-07-29T15:16:00;24.60;99.90
957;DHT22;465;48.802;9.224;2022-07-29T15:18:27;24.70;99.90
957;DHT22;465;48.802;9.224;2022-07-29T15:20:54;24.60;99.90
957;DHT22;465;48.802;9.224;2022-07-29T15:23:20;24.60;99.90
957;DHT22;465;48.802;9.224;2022-07-29T15:25:47;24.60;99.90
957;DHT22;465;48.802;9.224;2022-07-29T15:28:15;24.60;99.90
957;DHT22;465;48.802;9.224;2022-07-29T15:30:42;24.50;99.90
957;DHT22;465;48.802;9.224;2022-07-29T15:33:09;24.60;99.90
957;DHT22;465;48.802;9.224;2022-07-29T15:35:36;24.70;99.90
957;DHT22;465;48.802;9.224;2022-07-29T15:38:03;24.60;99.90
957;DHT22;465;48.802;9.224;2022-07-29T15:40:29;24.50;99.90
957;DHT22;465;48.802;9.224;2022-07-29T15:42:59;24.50;99.90
957;DHT22;465;48.802;9.224;2022-07-29T15:45:36;24.40;99.90
957;DHT22;465;48.802;9.224;2022-07-29T15:48:05;24.50;99.90
957;DHT22;465;48.802;9.224;2022-07-29T15:50:32;24.50;99.90
957;DHT22;465;48.802;9.224;2022-07-29T15:52:59;24.50;99.90
957;DHT22;465;48.802;9.224;2022-07-29T15:55:26;24.40;99.90
957;DHT22;465;48.802;9.224;2022-07-29T15:57:52;24.40;99.90
957;DHT22;465;48.802;9.224;2022-07-29T16:00:19;24.50;99.90
957;DHT22;465;48.802;9.224;2022-07-29T16:02:48;24.40;99.90
957;DHT22;465;48.802;9.224;2022-07-29T16:05:15;24.30;99.90
957;DHT22;465;48.802;9.224;2022-07-29T16:07:41;24.40;99.90
957;DHT22;465;48.802;9.224;2022-07-29T16:10:08;24.40;99.90
957;DHT22;465;48.802;9.224;2022-07-29T16:12:35;24.40;99.90
957;DHT22;465;48.802;9.224;2022-07-29T16:15:02;24.50;99.90
957;DHT22;465;48.802;9.224;2022-07-29T16:17:29;24.40;99.90
957;DHT22;465;48.802;9.224;2022-07-29T16:19:57;24.40;99.90
957;DHT22;465;48.802;9.224;2022-07-29T16:22:24;24.50;99.90
957;DHT22;465;48.802;9.224;2022-07-29T16:24:50;24.60;99.90
957;DHT22;465;48.802;9.224;2022-07-29T16:27:17;24.60;99.90
957;DHT22;465;48.802;9.224;2022-07-29T16:29:49;24.80;99.90
957;DHT22;465;48.802;9.224;2022-07-29T16:32:15;24.80;99.90
957;DHT22;465;48.802;9.224;2022-07-29T16:34:42;24.80;99.90
957;DHT22;465;48.802;9.224;2022-07-29T16:37:10;24.80;99.90
957;DHT22;465;48.802;9.224;2022-07-29T16:39:37;24.80;99.90
957;DHT22;465;48.802;9.224;2022-07-29T16:42:04;24.70;99.90
957;DHT22;465;48.802;9.224;2022-07-29T16:44:31;24.70;99.90
957;DHT22;465;48.802;9.224;2022-07-29T16:46:57;24.70;99.90
957;DHT22;465;48.802;9.224;2022-07-29T16:49:24;24.60;99.90
957;DHT22;465;48.802;9.224;2022-07-29T16:51:51;24.60;99.90
957;DHT22;465;48.802;9.224;2022-07-29T16:54:19;24.70;99.90
957;DHT22;465;48.802;9.224;2022-07-29T16:56:52;24.60;99.90
957;DHT22;465;48.802;9.224;2022-07-29T16:59:18;24.50;99.90
957;DHT22;465;48.802;9.224;2022-07-29T17:01:45;24.50;99.90
957;DHT22;465;48.802;9.224;2022-07-29T17:04:11;24.50;99.90
957;DHT22;465;48.802;9.224;2022-07-29T17:06:40;24.40;99.90
957;DHT22;465;48.802;9.224;2022-07-29T17:09:08;24.30;99.90
957;DHT22;465;48.802;9.224;2022-07-29T17:11:37;24.30;99.90
957;DHT22;465;48.802;9.224;2022-07-29T17:14:05;24.30;99.90
957;DHT22;465;48.802;9.224;2022-07-29T17:16:32;24.40;99.90
957;DHT22;465;48.802;9.224;2022-07-29T17:18:59;24.50;99.90
957;DHT22;465;48.802;9.224;2022-07-29T17:21:34;24.50;99.90
957;DHT22;465;48.802;9.224;2022-07-29T17:24:01;24.40;99.90
957;DHT22;465;48.802;9.224;2022-07-29T17:26:27;24.40;99.90
957;DHT22;465;48.802;9.224;2022-07-29T17:28:55;24.40;99.90
957;DHT22;465;48.802;9.224;2022-07-29T17:31:22;24.40;99.90
957;DHT22;465;48.802;9.224;2022-07-29T17:33:49;24.40;99.90
957;DHT22;465;48.802;9.224;2022-07-29T17:36:16;24.40;99.90